Farmington, WA

7:11 PM PDT on September 14, 2014 (GMT -0700)
KWAGARFI3 | Change Station
CLOSE
Current Station
Personal Weather Station
Location: Garfield, WA
Elevation: 2520 ft
Nearby Weather Stations

Elev 2520 ft 47.01 °N, 117.15 °W | Updated 1 minute ago

Clear
Clear
63.9 °F
Feels Like 63.9 °F
N
0.0
Wind Variable Wind from SE
Gusts 0.0 mph

Today
High -- | Low -- °F
--% Chance of Precip.
Yesterday
High -- | Low -- °F
Precip. -- in
6:24 AM 7:01 PM
Waning Gibbous, 60% visible
Pressure 29.99 in
Visibility 10.0 miles
Clouds Clear
Dew Point 26 °F
Humidity 24%
Rainfall 0.00 in
Snow Depth 0 in , 0 in , 0 in
UV 0 out of 12
Pollen 6.50 out of 12
Air Quality Not available.
Flu Activity Not available.
METAR KPUW 150153Z AUTO 23004KT 10SM CLR 21/M05 A2999 RMK AO2 SLP155 T02111050

More Conditions Fewer Conditions

Pressure 29.99 in
Visibility 10.0 miles
Clouds Clear
Dew Point 26 °F
Humidity 24%
Rainfall 0.00 in
Snow Depth 0 in , 0 in , 0 in
UV 0 out of 12
Pollen 6.50 out of 12
Air Quality Not available.
Flu Activity Not available.
METAR KPUW 150153Z AUTO 23004KT 10SM CLR 21/M05 A2999 RMK AO2 SLP155 T02111050

More Conditions Fewer Conditions

10-Day Weather Forecast

Almanac

Astronomy

Sep. 14, 2014 Rise Set
Actual Time 6:24 AM PDT 7:01 PM PDT
Civil Twilight 5:53 AM PDT 7:32 PM PDT
Nautical Twilight 5:17 AM PDT 8:08 PM PDT
Astronomical Twilight 4:39 AM PDT 8:46 PM PDT
Moon 10:35 PM PDT (9/14) 12:57 PM PDT (9/14)
Length of Visible Light 13h 38m
Length of Day
12h 37m
Tomorrow will be 3m 19s shorter.
Waning Gibbous, 60% of the Moon is Illuminated
Today
Waning Gibbous
Sep 15
Last Quarter
Sep 24
New
Oct 1
First Quarter
Oct 8
Full

Today's Extremes

State Highs State Lows

Community

WunderPhotos

Upload Photos

1,753,371 photos uploaded!

Nearby

Snow Depth

Station Depth Elevation
Sentinel Butte 0 in 4920 ft
Sheep Canyon 0 in 4030 ft
Swift Creek 0 in 3770 ft
Spruce Springs 0 in 5700 ft
Sasse Ridge 0 in 4200 ft

Earthquake Activity

City Distance Mag. Time & Date
No recent earthquake activity has been reported nearby.
Minimum magnitude displayed is 2.5.

Coastal Water Temperatures

Place Temperature
No Stations Reporting

Nearby Weather Stations